createdAt,value
2023-05-22T00:01:32.799Z,100174.22
2023-05-22T00:04:02.973Z,100171.69
2023-05-22T00:06:34.186Z,100163.78
2023-05-22T00:09:06.844Z,100156.72
2023-05-22T00:11:37.144Z,100167.28
2023-05-22T00:14:06.900Z,100166.31
2023-05-22T00:16:36.677Z,100170.50
2023-05-22T00:19:07.386Z,100161.50
2023-05-22T00:21:37.748Z,100150.59
2023-05-22T00:24:10.672Z,100151.34
2023-05-22T00:26:40.487Z,100153.03
2023-05-22T00:29:11.004Z,100139.53
2023-05-22T00:31:40.812Z,100136.03
2023-05-22T00:34:10.739Z,100123.63
2023-05-22T00:36:40.613Z,100141.50
2023-05-22T00:39:13.180Z,100143.31
2023-05-22T00:41:43.009Z,100134.44
2023-05-22T00:44:13.060Z,100135.38
2023-05-22T00:46:43.427Z,100133.78
2023-05-22T00:49:13.246Z,100134.03
2023-05-22T00:51:43.026Z,100133.41
2023-05-22T00:54:15.712Z,100134.47
2023-05-22T00:56:45.651Z,100134.91
2023-05-22T00:59:15.894Z,100135.25
2023-05-22T01:01:45.792Z,100131.09
2023-05-22T01:04:18.660Z,100132.41
2023-05-22T01:06:49.631Z,100137.22
2023-05-22T01:09:21.990Z,100142.03
2023-05-22T01:11:58.705Z,100145.03
2023-05-22T01:14:34.913Z,100154.09
2023-05-22T01:17:10.100Z,100158.69
2023-05-22T01:20:01.753Z,100148.78
2023-05-22T01:23:02.935Z,100158.69
2023-05-22T01:25:55.815Z,100155.19
2023-05-22T01:28:40.214Z,100152.72
2023-05-22T01:31:13.461Z,100159.13
2023-05-22T01:33:49.424Z,100149.84
2023-05-22T01:36:22.647Z,100152.72
2023-05-22T01:38:52.952Z,100143.28
2023-05-22T01:41:23.498Z,100149.81
2023-05-22T01:43:53.319Z,100151.81
2023-05-22T01:46:28.399Z,100148.75
2023-05-22T01:48:58.332Z,100150.00
2023-05-22T01:51:44.238Z,100148.50
2023-05-22T01:54:20.236Z,100146.28
2023-05-22T01:56:52.048Z,100145.63
2023-05-22T01:59:26.759Z,100143.16
2023-05-22T02:01:59.367Z,100141.44
2023-05-22T02:04:30.290Z,100138.88
2023-05-22T02:07:01.228Z,100142.41
2023-05-22T02:09:32.899Z,100145.00
2023-05-22T02:12:03.752Z,100136.00
2023-05-22T02:14:34.719Z,100133.22
2023-05-22T02:17:08.972Z,100131.22
2023-05-22T02:19:38.932Z,100126.41
2023-05-22T02:22:10.078Z,100127.16
2023-05-22T02:24:40.222Z,100132.31
2023-05-22T02:27:10.323Z,100130.47
2023-05-22T02:29:40.146Z,100126.84
2023-05-22T02:32:12.643Z,100126.75
2023-05-22T02:34:42.396Z,100118.72
2023-05-22T02:37:13.339Z,100125.78
2023-05-22T02:39:43.686Z,100115.00
2023-05-22T02:42:13.436Z,100118.50
2023-05-22T02:44:43.208Z,100110.38
2023-05-22T02:47:15.705Z,100104.94
2023-05-22T02:49:45.584Z,100113.81
2023-05-22T02:52:15.473Z,100096.94
2023-05-22T02:54:45.311Z,100102.28
2023-05-22T02:57:15.279Z,100104.00
2023-05-22T02:59:45.039Z,100096.84
2023-05-22T03:02:19.913Z,100091.50
2023-05-22T03:04:51.334Z,100091.50
2023-05-22T03:07:21.640Z,100096.94
2023-05-22T03:09:51.476Z,100098.03
2023-05-22T03:12:21.319Z,100102.72
2023-05-22T03:14:51.139Z,100110.19
2023-05-22T03:17:23.513Z,100103.34
2023-05-22T03:19:53.353Z,100110.81
2023-05-22T03:22:23.382Z,100103.13
2023-05-22T03:24:53.660Z,100103.47
2023-05-22T03:27:23.478Z,100108.38
2023-05-22T03:29:53.313Z,100103.31
2023-05-22T03:32:27.018Z,100098.31
2023-05-22T03:34:57.080Z,100102.25
2023-05-22T03:37:26.866Z,100106.94
2023-05-22T03:39:56.766Z,100104.59
2023-05-22T03:42:32.767Z,100096.97
2023-05-22T03:45:02.845Z,100100.72
2023-05-22T03:47:35.423Z,100098.25
2023-05-22T03:50:06.148Z,100110.09
2023-05-22T03:52:36.013Z,100108.38
2023-05-22T03:55:08.073Z,100117.41
2023-05-22T03:57:37.839Z,100111.34
2023-05-22T04:00:10.053Z,100120.28
2023-05-22T04:02:47.050Z,100128.28
2023-05-22T04:05:17.508Z,100116.69
2023-05-22T04:07:47.362Z,100121.06
2023-05-22T04:10:17.114Z,100122.75
2023-05-22T04:12:46.877Z,100122.56
2023-05-22T04:15:16.583Z,100121.59
2023-05-22T04:17:50.177Z,100130.34
2023-05-22T04:20:22.392Z,100127.47
2023-05-22T04:22:54.561Z,100132.72
2023-05-22T04:25:24.393Z,100133.38
2023-05-22T04:27:55.728Z,100131.25
2023-05-22T04:30:25.863Z,100128.16
2023-05-22T04:32:58.252Z,100135.00
2023-05-22T04:35:29.767Z,100145.28
2023-05-22T04:38:02.339Z,100142.19
2023-05-22T04:40:33.872Z,100141.78
2023-05-22T04:43:03.735Z,100144.88
2023-05-22T04:45:33.863Z,100141.66
2023-05-22T04:48:06.518Z,100141.16
2023-05-22T04:50:39.162Z,100145.97
2023-05-22T04:53:09.573Z,100139.97
2023-05-22T04:55:40.077Z,100136.69
2023-05-22T04:58:13.366Z,100140.44
2023-05-22T05:00:43.496Z,100136.25
2023-05-22T05:03:16.107Z,100138.16
2023-05-22T05:05:46.393Z,100143.81
2023-05-22T05:08:16.255Z,100135.13
2023-05-22T05:10:46.143Z,100134.47
2023-05-22T05:13:16.011Z,100137.44
2023-05-22T05:15:48.075Z,100139.47
2023-05-22T05:18:20.446Z,100135.13
2023-05-22T05:20:51.807Z,100138.84
2023-05-22T05:23:22.589Z,100137.28
2023-05-22T05:25:52.404Z,100142.00
2023-05-22T05:28:23.283Z,100142.88
2023-05-22T05:30:53.256Z,100142.19
2023-05-22T05:33:44.140Z,100143.94
2023-05-22T05:36:34.480Z,100151.91
2023-05-22T05:39:04.500Z,100149.34
2023-05-22T05:41:37.384Z,100150.34
2023-05-22T05:44:11.228Z,100153.91
2023-05-22T05:46:41.425Z,100151.59
2023-05-22T05:49:14.305Z,100159.03
2023-05-22T05:51:45.222Z,100161.34
2023-05-22T05:54:15.104Z,100165.16
2023-05-22T05:56:44.907Z,100160.41
2023-05-22T05:59:14.965Z,100168.81
2023-05-22T06:02:00.662Z,100166.47
2023-05-22T06:04:37.136Z,100174.00
2023-05-22T06:07:08.101Z,100169.94
2023-05-22T06:09:42.611Z,100171.97
2023-05-22T06:12:38.842Z,100176.47
2023-05-22T06:15:10.559Z,100176.56
2023-05-22T06:17:40.515Z,100185.81
2023-05-22T06:20:17.200Z,100185.06
2023-05-22T06:22:47.011Z,100187.22
2023-05-22T06:25:16.842Z,100186.28
2023-05-22T06:27:47.534Z,100186.72
2023-05-22T06:30:31.853Z,100187.72
2023-05-22T06:33:10.489Z,100191.72
2023-05-22T06:35:43.395Z,100188.31
2023-05-22T06:38:13.330Z,100190.31
2023-05-22T06:40:45.130Z,100185.09
2023-05-22T06:43:24.540Z,100196.19
2023-05-22T06:45:58.548Z,100185.00
2023-05-22T06:48:47.096Z,100190.81
2023-05-22T06:51:29.589Z,100191.97
2023-05-22T06:54:07.824Z,100188.94
2023-05-22T06:56:39.869Z,100192.09
2023-05-22T06:59:13.756Z,100196.19
2023-05-22T07:02:06.647Z,100200.75
2023-05-22T07:04:58.904Z,100203.34
2023-05-22T07:07:51.182Z,100201.44
2023-05-22T07:10:20.959Z,100209.53
2023-05-22T07:12:53.185Z,100209.28
2023-05-22T07:15:22.963Z,100206.16
2023-05-22T07:17:56.502Z,100208.56
2023-05-22T07:20:26.441Z,100205.47
2023-05-22T07:23:14.582Z,100214.22
2023-05-22T07:25:45.686Z,100212.38
2023-05-22T07:28:17.539Z,100215.50
2023-05-22T07:31:03.700Z,100213.78
2023-05-22T07:33:33.665Z,100215.56
2023-05-22T07:36:03.473Z,100215.38
2023-05-22T07:38:36.454Z,100220.91
2023-05-22T07:41:08.103Z,100227.59
2023-05-22T07:43:38.127Z,100224.38
2023-05-22T07:46:09.590Z,100227.78
2023-05-22T07:48:47.176Z,100229.03
2023-05-22T07:51:18.214Z,100232.00
2023-05-22T07:53:54.148Z,100239.00
2023-05-22T07:56:25.912Z,100237.59
2023-05-22T07:58:56.019Z,100236.56
2023-05-22T08:01:26.449Z,100244.19
2023-05-22T08:03:56.663Z,100241.31
2023-05-22T08:06:27.173Z,100242.31
2023-05-22T08:09:00.257Z,100246.00
2023-05-22T08:11:30.057Z,100240.63
2023-05-22T08:13:59.811Z,100245.81
2023-05-22T08:16:31.085Z,100246.75
2023-05-22T08:19:01.050Z,100249.97
2023-05-22T08:21:33.291Z,100246.56
2023-05-22T08:24:06.079Z,100251.22
2023-05-22T08:26:35.937Z,100260.53
2023-05-22T08:29:05.704Z,100264.47
2023-05-22T08:31:36.099Z,100267.28
2023-05-22T08:34:07.426Z,100268.13
2023-05-22T08:36:37.608Z,100269.97
2023-05-22T08:39:10.313Z,100262.31
2023-05-22T08:41:40.144Z,100262.97
2023-05-22T08:44:11.135Z,100257.81
2023-05-22T08:46:41.768Z,100264.94
2023-05-22T08:49:12.169Z,100248.41
2023-05-22T08:51:43.056Z,100259.38
2023-05-22T08:54:15.550Z,100259.69
2023-05-22T08:56:55.694Z,100268.72
2023-05-22T08:59:27.004Z,100268.41
2023-05-22T09:01:58.257Z,100268.69
2023-05-22T09:04:30.077Z,100266.97
2023-05-22T09:07:05.873Z,100271.75
2023-05-22T09:09:39.762Z,100268.06
2023-05-22T09:12:12.022Z,100273.31
2023-05-22T09:14:42.390Z,100274.06
2023-05-22T09:17:12.938Z,100276.88
2023-05-22T09:19:46.539Z,100273.44
2023-05-22T09:22:16.889Z,100275.63
2023-05-22T09:24:49.769Z,100277.53
2023-05-22T09:27:19.542Z,100269.66
2023-05-22T09:29:51.458Z,100274.34
2023-05-22T09:32:22.059Z,100276.66
2023-05-22T09:34:52.302Z,100282.56
2023-05-22T09:37:22.147Z,100278.97
2023-05-22T09:39:56.608Z,100276.66
2023-05-22T09:42:27.573Z,100275.28
2023-05-22T09:44:57.371Z,100270.66
2023-05-22T09:47:27.213Z,100270.94
2023-05-22T09:50:00.726Z,100274.53
2023-05-22T09:52:31.702Z,100270.44
2023-05-22T09:55:06.097Z,100268.00
2023-05-22T09:57:40.210Z,100270.13
2023-05-22T10:00:13.397Z,100274.75
2023-05-22T10:02:45.715Z,100269.75
2023-05-22T10:05:21.828Z,100268.59
2023-05-22T10:07:52.880Z,100269.53
2023-05-22T10:10:30.858Z,100273.97
2023-05-22T10:13:04.582Z,100273.59
2023-05-22T10:15:34.195Z,100273.72
2023-05-22T10:18:04.371Z,100269.53
2023-05-22T10:20:34.160Z,100270.41
2023-05-22T10:23:06.283Z,100275.16
2023-05-22T10:25:39.272Z,100273.69
2023-05-22T10:28:09.735Z,100275.38
2023-05-22T10:30:45.152Z,100288.56
2023-05-22T10:33:40.020Z,100269.50
2023-05-22T10:36:12.450Z,100269.59
2023-05-22T10:38:58.435Z,100271.00
2023-05-22T10:41:31.281Z,100266.94
2023-05-22T10:44:01.036Z,100263.84
2023-05-22T10:46:35.435Z,100260.47
2023-05-22T10:49:05.411Z,100262.19
2023-05-22T10:51:35.430Z,100260.69
2023-05-22T10:54:05.845Z,100258.53
2023-05-22T10:56:38.796Z,100267.06
2023-05-22T10:59:08.893Z,100251.16
2023-05-22T11:01:38.918Z,100249.34
2023-05-22T11:04:20.195Z,100251.78
2023-05-22T11:07:05.572Z,100252.66
2023-05-22T11:09:36.371Z,100251.66
2023-05-22T11:12:22.612Z,100254.38
2023-05-22T11:14:54.054Z,100253.38
2023-05-22T11:17:26.050Z,100256.06
2023-05-22T11:20:06.807Z,100246.91
2023-05-22T11:22:39.947Z,100248.59
2023-05-22T11:25:14.225Z,100254.78
2023-05-22T11:27:47.502Z,100255.06
2023-05-22T11:30:21.240Z,100249.97
2023-05-22T11:32:51.011Z,100245.22
2023-05-22T11:35:21.728Z,100239.16
2023-05-22T11:37:54.501Z,100249.47
2023-05-22T11:40:26.155Z,100250.44
2023-05-22T11:42:59.049Z,100243.31
2023-05-22T11:45:29.835Z,100239.25
2023-05-22T11:47:59.745Z,100231.72
2023-05-22T11:50:41.773Z,100236.72
2023-05-22T11:53:12.747Z,100229.06
2023-05-22T11:55:42.533Z,100228.31
2023-05-22T11:58:15.300Z,100228.44
2023-05-22T12:00:46.374Z,100220.59
2023-05-22T12:03:17.719Z,100218.13
2023-05-22T12:05:49.473Z,100221.28
2023-05-22T12:08:19.397Z,100224.53
2023-05-22T12:10:51.013Z,100217.28
2023-05-22T12:13:32.809Z,100211.84
2023-05-22T12:16:03.462Z,100213.88
2023-05-22T12:18:39.147Z,100205.59
2023-05-22T12:21:09.569Z,100211.69
2023-05-22T12:23:39.322Z,100213.09
2023-05-22T12:26:12.409Z,100204.47
2023-05-22T12:28:44.741Z,100198.81
2023-05-22T12:31:14.662Z,100204.56
2023-05-22T12:33:44.457Z,100208.25
2023-05-22T12:36:14.478Z,100198.75
2023-05-22T12:38:44.392Z,100201.25
2023-05-22T12:41:14.461Z,100198.00
2023-05-22T12:43:46.832Z,100203.94
2023-05-22T12:46:16.743Z,100203.78
2023-05-22T12:48:46.494Z,100202.63
2023-05-22T12:51:18.033Z,100198.94
2023-05-22T12:53:49.073Z,100199.06
2023-05-22T12:56:18.813Z,100204.16
2023-05-22T12:58:51.225Z,100198.44
2023-05-22T13:01:21.908Z,100197.94
2023-05-22T13:03:52.003Z,100192.91
2023-05-22T13:06:21.973Z,100196.72
2023-05-22T13:08:51.792Z,100195.25
2023-05-22T13:11:23.587Z,100198.31
2023-05-22T13:13:55.910Z,100199.84
2023-05-22T13:16:25.732Z,100201.72
2023-05-22T13:18:55.513Z,100199.69
2023-05-22T13:21:26.722Z,100194.97
2023-05-22T13:23:56.861Z,100189.22
2023-05-22T13:26:26.785Z,100197.50
2023-05-22T13:28:59.636Z,100191.25
2023-05-22T13:31:29.395Z,100192.31
2023-05-22T13:34:01.566Z,100186.09
2023-05-22T13:36:32.631Z,100188.31
2023-05-22T13:39:02.592Z,100190.16
2023-05-22T13:41:32.377Z,100195.72
2023-05-22T13:44:04.767Z,100186.94
2023-05-22T13:46:34.555Z,100179.81
2023-05-22T13:49:04.333Z,100184.19
2023-05-22T13:51:34.119Z,100186.53
2023-05-22T13:54:03.909Z,100178.06
2023-05-22T13:56:33.804Z,100183.22
2023-05-22T13:59:09.181Z,100185.00
2023-05-22T14:01:39.520Z,100181.03
2023-05-22T14:04:09.452Z,100181.38
2023-05-22T14:06:39.426Z,100178.69
2023-05-22T14:09:09.747Z,100183.63
2023-05-22T14:11:39.544Z,100177.88
2023-05-22T14:14:11.897Z,100183.81
2023-05-22T14:16:42.211Z,100188.06
2023-05-22T14:19:12.479Z,100192.13
2023-05-22T14:21:42.222Z,100186.88
2023-05-22T14:24:11.973Z,100181.47
2023-05-22T14:26:42.241Z,100178.78
2023-05-22T14:29:14.916Z,100181.97
2023-05-22T14:31:51.441Z,100182.84
2023-05-22T14:34:21.855Z,100184.38
2023-05-22T14:36:51.658Z,100181.97
2023-05-22T14:39:21.415Z,100178.25
2023-05-22T14:41:51.531Z,100180.78
2023-05-22T14:44:24.113Z,100181.13
2023-05-22T14:46:54.764Z,100166.88
2023-05-22T14:49:24.566Z,100168.72
2023-05-22T14:51:54.780Z,100167.00
2023-05-22T14:54:24.512Z,100164.63
2023-05-22T14:56:54.307Z,100161.47
2023-05-22T14:59:26.665Z,100165.38
2023-05-22T15:01:56.500Z,100162.69
2023-05-22T15:04:26.416Z,100158.09
2023-05-22T15:06:56.475Z,100153.16
2023-05-22T15:09:26.418Z,100158.44
2023-05-22T15:11:56.222Z,100144.19
2023-05-22T15:14:28.523Z,100140.78
2023-05-22T15:16:58.275Z,100133.88
2023-05-22T15:19:28.178Z,100141.13
2023-05-22T15:22:05.819Z,100141.31
2023-05-22T15:24:47.133Z,100140.31
2023-05-22T15:27:17.454Z,100139.13
2023-05-22T15:29:49.772Z,100120.47
2023-05-22T15:32:19.560Z,100123.19
2023-05-22T15:34:49.397Z,100121.84
2023-05-22T15:37:19.160Z,100128.94
2023-05-22T15:39:49.046Z,100126.91
2023-05-22T15:42:18.827Z,100123.50
2023-05-22T15:44:51.212Z,100124.69
2023-05-22T15:47:20.977Z,100117.06
2023-05-22T15:49:50.751Z,100121.81
2023-05-22T15:52:22.640Z,100112.31
2023-05-22T15:54:52.663Z,100117.59
2023-05-22T15:57:22.938Z,100123.66
2023-05-22T15:59:55.318Z,100127.91
2023-05-22T16:02:25.623Z,100134.66
2023-05-22T16:04:55.458Z,100143.13
2023-05-22T16:07:25.254Z,100137.72
2023-05-22T16:09:55.009Z,100142.09
2023-05-22T16:12:24.907Z,100144.13
2023-05-22T16:15:00.377Z,100136.50
2023-05-22T16:17:30.922Z,100148.84
2023-05-22T16:20:00.700Z,100139.16
2023-05-22T16:22:44.285Z,100142.38
2023-05-22T16:25:18.651Z,100152.50
2023-05-22T16:27:48.429Z,100150.06
2023-05-22T16:30:21.456Z,100152.91
2023-05-22T16:32:51.731Z,100154.53
2023-05-22T16:35:22.372Z,100153.97
2023-05-22T16:37:52.937Z,100157.47
2023-05-22T16:40:22.819Z,100162.88
2023-05-22T16:42:52.530Z,100167.13
2023-05-22T16:45:25.029Z,100168.41
2023-05-22T16:47:55.922Z,100160.63
2023-05-22T16:50:26.035Z,100158.59
2023-05-22T16:52:56.434Z,100154.50
2023-05-22T16:55:26.212Z,100153.31
2023-05-22T16:57:55.942Z,100141.31
2023-05-22T17:00:28.503Z,100146.72
2023-05-22T17:02:58.788Z,100150.09
2023-05-22T17:05:28.739Z,100156.13
2023-05-22T17:07:58.522Z,100143.53
2023-05-22T17:10:28.298Z,100142.50
2023-05-22T17:12:58.053Z,100151.91
2023-05-22T17:15:30.439Z,100155.94
2023-05-22T17:18:00.422Z,100147.59
2023-05-22T17:20:30.198Z,100158.91
2023-05-22T17:22:59.947Z,100159.91
2023-05-22T17:25:29.719Z,100163.00
2023-05-22T17:27:59.580Z,100162.50
2023-05-22T17:30:32.138Z,100158.81
2023-05-22T17:33:03.730Z,100167.41
2023-05-22T17:35:33.805Z,100174.56
2023-05-22T17:38:03.539Z,100164.25
2023-05-22T17:40:43.855Z,100185.84
2023-05-22T17:43:14.390Z,100180.78
2023-05-22T17:45:50.265Z,100180.66
2023-05-22T17:48:23.848Z,100193.69
2023-05-22T17:50:53.467Z,100197.06
2023-05-22T17:53:23.589Z,100210.22
2023-05-22T17:55:54.249Z,100211.03
2023-05-22T17:58:24.130Z,100204.69
2023-05-22T18:00:56.525Z,100208.16
2023-05-22T18:03:26.594Z,100207.94
2023-05-22T18:05:56.439Z,100209.69
2023-05-22T18:08:26.234Z,100225.59
2023-05-22T18:10:57.337Z,100232.69
2023-05-22T18:13:27.144Z,100235.19
2023-05-22T18:16:00.205Z,100245.97
2023-05-22T18:18:30.343Z,100241.38
2023-05-22T18:21:01.159Z,100246.44
2023-05-22T18:23:30.995Z,100255.13
2023-05-22T18:26:01.264Z,100259.03
2023-05-22T18:28:30.981Z,100262.94
2023-05-22T18:31:04.284Z,100260.34
2023-05-22T18:33:34.383Z,100261.41
2023-05-22T18:36:04.549Z,100266.81
2023-05-22T18:38:34.338Z,100256.13
2023-05-22T18:41:04.138Z,100266.81
2023-05-22T18:43:33.881Z,100262.31
2023-05-22T18:46:06.772Z,100264.06
2023-05-22T18:48:36.554Z,100275.59
2023-05-22T18:51:06.606Z,100273.69
2023-05-22T18:53:36.374Z,100284.19
2023-05-22T18:56:06.233Z,100282.13
2023-05-22T18:58:37.807Z,100284.59
2023-05-22T19:01:10.735Z,100281.69
2023-05-22T19:03:40.592Z,100290.34
2023-05-22T19:06:10.316Z,100290.81
2023-05-22T19:08:40.621Z,100304.97
2023-05-22T19:11:10.414Z,100306.44
2023-05-22T19:13:41.332Z,100305.22
2023-05-22T19:16:13.788Z,100300.34
2023-05-22T19:18:43.646Z,100306.19
2023-05-22T19:21:13.406Z,100309.09
2023-05-22T19:23:43.390Z,100310.31
2023-05-22T19:26:13.265Z,100313.13
2023-05-22T19:28:43.388Z,100319.56
2023-05-22T19:31:16.646Z,100322.25
2023-05-22T19:33:47.097Z,100321.53
2023-05-22T19:36:16.871Z,100328.84
2023-05-22T19:38:46.653Z,100328.22
2023-05-22T19:41:17.305Z,100332.97
2023-05-22T19:43:47.332Z,100336.88
2023-05-22T19:46:19.812Z,100340.75
2023-05-22T19:48:49.800Z,100345.72
2023-05-22T19:51:19.667Z,100342.53
2023-05-22T19:53:49.498Z,100346.66
2023-05-22T19:56:19.300Z,100349.03
2023-05-22T19:58:49.100Z,100363.00
2023-05-22T20:01:21.545Z,100362.72
2023-05-22T20:03:51.773Z,100366.84
2023-05-22T20:06:21.961Z,100371.78
2023-05-22T20:08:51.736Z,100369.56
2023-05-22T20:11:21.803Z,100377.94
2023-05-22T20:13:54.725Z,100374.59
2023-05-22T20:16:29.543Z,100382.03
2023-05-22T20:18:59.597Z,100388.47
2023-05-22T20:21:29.349Z,100392.56
2023-05-22T20:23:59.543Z,100384.84
2023-05-22T20:26:29.559Z,100386.16
2023-05-22T20:28:59.316Z,100393.66
2023-05-22T20:31:31.874Z,100391.31
2023-05-22T20:34:02.132Z,100392.50
2023-05-22T20:36:32.655Z,100396.59
2023-05-22T20:39:02.565Z,100391.53
2023-05-22T20:41:32.313Z,100393.72
2023-05-22T20:44:02.768Z,100398.50
2023-05-22T20:46:35.597Z,100392.59
2023-05-22T20:49:06.276Z,100392.94
2023-05-22T20:51:37.111Z,100396.88
2023-05-22T20:54:07.020Z,100405.22
2023-05-22T20:56:37.827Z,100401.06
2023-05-22T20:59:07.604Z,100403.19
2023-05-22T21:01:40.048Z,100402.66
2023-05-22T21:04:10.103Z,100397.72
2023-05-22T21:06:40.045Z,100402.41
2023-05-22T21:09:09.807Z,100398.34
2023-05-22T21:11:39.572Z,100404.13
2023-05-22T21:14:09.463Z,100395.56
2023-05-22T21:16:41.873Z,100402.91
2023-05-22T21:19:11.725Z,100396.16
2023-05-22T21:21:41.955Z,100405.34
2023-05-22T21:24:12.394Z,100402.22
2023-05-22T21:26:42.173Z,100399.09
2023-05-22T21:29:11.983Z,100397.59
2023-05-22T21:31:44.358Z,100397.91
2023-05-22T21:34:14.144Z,100406.31
2023-05-22T21:36:43.934Z,100405.75
2023-05-22T21:39:13.844Z,100406.03
2023-05-22T21:41:43.662Z,100412.53
2023-05-22T21:44:13.427Z,100417.31
2023-05-22T21:46:46.067Z,100412.28
2023-05-22T21:49:15.877Z,100418.78
2023-05-22T21:51:45.679Z,100412.03
2023-05-22T21:54:15.481Z,100411.47
2023-05-22T21:56:45.239Z,100419.78
2023-05-22T21:59:15.059Z,100424.53
2023-05-22T22:01:47.510Z,100421.41
2023-05-22T22:04:17.262Z,100426.16
2023-05-22T22:06:47.030Z,100425.69
2023-05-22T22:09:16.846Z,100431.31
2023-05-22T22:11:48.685Z,100432.47
2023-05-22T22:14:18.550Z,100433.81
2023-05-22T22:16:54.371Z,100434.84
2023-05-22T22:19:24.874Z,100430.75
2023-05-22T22:21:55.172Z,100445.25
2023-05-22T22:24:24.902Z,100443.59
2023-05-22T22:26:55.129Z,100440.25
2023-05-22T22:29:24.991Z,100438.63
2023-05-22T22:31:57.354Z,100445.00
2023-05-22T22:34:27.197Z,100454.94
2023-05-22T22:36:57.547Z,100453.31
2023-05-22T22:39:27.795Z,100454.34
2023-05-22T22:42:02.034Z,100453.66
2023-05-22T22:44:31.912Z,100457.34
2023-05-22T22:47:04.792Z,100464.56
2023-05-22T22:49:35.077Z,100468.09
2023-05-22T22:52:04.812Z,100470.75
2023-05-22T22:54:34.592Z,100476.97
2023-05-22T22:57:04.680Z,100468.19
2023-05-22T22:59:35.624Z,100471.88
2023-05-22T23:02:08.472Z,100475.63
2023-05-22T23:04:38.309Z,100482.03
2023-05-22T23:07:08.557Z,100479.47
2023-05-22T23:09:40.162Z,100494.03
2023-05-22T23:12:11.257Z,100495.16
2023-05-22T23:14:41.016Z,100498.19
2023-05-22T23:17:13.379Z,100500.25
2023-05-22T23:19:43.234Z,100500.44
2023-05-22T23:22:13.196Z,100499.41
2023-05-22T23:24:42.953Z,100497.41
2023-05-22T23:27:12.736Z,100497.41
2023-05-22T23:29:43.639Z,100499.88
2023-05-22T23:32:16.056Z,100498.59
2023-05-22T23:34:45.876Z,100499.00
2023-05-22T23:37:15.623Z,100495.88
2023-05-22T23:39:45.386Z,100500.06
2023-05-22T23:42:15.721Z,100501.91
2023-05-22T23:44:45.635Z,100499.50
2023-05-22T23:47:18.994Z,100502.63
2023-05-22T23:49:48.807Z,100490.69
2023-05-22T23:52:18.670Z,100486.75
2023-05-22T23:54:48.438Z,100489.88
2023-05-22T23:57:18.259Z,100486.72
2023-05-22T23:59:48.009Z,100483.63
